Time;durP1;ratioP1;P1;durP2;ratioP2;P2;SDS_P1;SDS_P2;PMS_P1;PMS_P2;Temp;Humidity;BMP_temperature;BMP_pressure;BME280_temperature;BME280_humidity;BME280_pressure;Samples;Min_cycle;Max_cycle;Signal;HPM_P1;HPM_P2
2021/07/11 03:30:36;;;;;;;3.37;2.50;;;;;;;20.97;60.70;98792.00;8317877;23;20181;31
2021/07/11 03:33:59;;;;;;;3.07;2.50;;;;;;;21.15;59.85;98784.09;6786369;29;20218;-83
2021/07/11 03:37:23;;;;;;;2.80;2.60;;;;;;;21.63;60.09;98798.06;6787251;29;20199;-83
2021/07/11 03:40:45;;;;;;;2.70;2.00;;;;;;;21.62;58.95;98795.59;6794034;29;20237;-83
2021/07/11 03:44:08;;;;;;;3.10;2.33;;;;;;;21.10;60.59;98807.94;6814469;29;20262;-85
2021/07/11 03:47:37;;;;;;;2.83;2.27;;;;;;;20.86;61.51;98798.56;6816202;29;20212;-87
2021/07/11 03:51:04;;;;;;;2.87;2.57;;;;;;;21.25;60.43;98773.13;6812420;29;20265;-89
2021/07/11 03:54:35;;;;;;;2.90;2.60;;;;;;;21.19;61.05;98801.66;6795265;29;20210;-84
2021/07/11 03:57:57;;;;;;;2.33;2.13;;;;;;;21.13;61.21;98809.03;6785916;29;20210;-84
2021/07/11 04:01:23;;;;;;;2.63;2.43;;;;;;;21.06;60.81;98791.22;6785848;29;20223;-83
2021/07/11 04:04:45;;;;;;;2.70;2.50;;;;;;;21.87;59.51;98807.41;6786411;29;20201;-82
2021/07/11 04:08:13;;;;;;;2.70;2.50;;;;;;;21.49;59.90;98801.66;6790896;29;20718;-83
2021/07/11 04:11:35;;;;;;;2.73;2.40;;;;;;;21.41;60.10;98803.00;6786190;29;20292;-83
2021/07/11 04:14:56;;;;;;;2.90;2.70;;;;;;;20.98;61.45;98802.69;6786971;29;20569;-83
2021/07/11 04:18:19;;;;;;;2.97;2.57;;;;;;;21.17;61.28;98803.00;6808686;29;20214;-85
2021/07/11 04:21:42;;;;;;;2.43;2.23;;;;;;;21.08;60.98;98802.72;6812185;29;20225;-82
2021/07/11 04:25:09;;;;;;;3.00;2.57;;;;;;;21.80;59.77;98801.38;6812000;29;20210;-83
2021/07/11 04:28:32;;;;;;;2.70;2.50;;;;;;;21.91;57.74;98785.69;6813301;29;20277;-83
2021/07/11 04:31:54;;;;;;;3.60;2.30;;;;;;;21.99;58.56;98802.44;6806413;29;20230;-84
2021/07/11 04:35:16;;;;;;;2.70;2.50;;;;;;;21.95;58.36;98808.75;6790771;29;20199;-83
2021/07/11 04:38:38;;;;;;;2.73;2.43;;;;;;;21.93;58.10;98813.69;6780179;29;20656;-83
2021/07/11 04:42:01;;;;;;;3.30;2.67;;;;;;;21.92;57.91;98818.38;6815230;29;20610;-84
2021/07/11 04:45:23;;;;;;;3.00;2.37;;;;;;;22.07;58.39;98825.75;6811273;29;20210;-83
2021/07/11 04:48:45;;;;;;;2.60;2.40;;;;;;;22.34;57.45;98809.72;6808720;29;20207;-83
2021/07/11 04:52:07;;;;;;;2.67;2.47;;;;;;;21.51;59.34;98808.50;6790943;29;20719;-83
2021/07/11 04:55:29;;;;;;;3.63;2.40;;;;;;;22.54;58.12;98809.69;6810410;29;20208;-83
2021/07/11 04:58:52;;;;;;;2.80;2.60;;;;;;;22.71;57.99;98824.72;6796250;29;20214;-84
2021/07/11 05:02:13;;;;;;;3.20;2.80;;;;;;;22.53;57.94;98825.34;6789887;29;20223;-84
2021/07/11 05:05:35;;;;;;;3.17;2.73;;;;;;;22.65;58.15;98836.81;6789038;29;20216;-85
2021/07/11 05:08:57;;;;;;;6.07;2.90;;;;;;;22.30;59.16;98825.94;6788805;29;20213;-82
2021/07/11 05:12:18;;;;;;;3.07;2.87;;;;;;;21.91;59.39;98824.13;6787829;29;20242;-83
2021/07/11 05:15:42;;;;;;;2.50;2.30;;;;;;;21.48;60.30;98830.19;6789358;29;20260;-83
2021/07/11 05:19:03;;;;;;;2.47;2.27;;;;;;;21.69;59.65;98823.59;6785758;29;20215;-84
2021/07/11 05:22:26;;;;;;;2.50;2.30;;;;;;;22.21;58.86;98821.31;6786766;29;20294;-84
2021/07/11 05:25:48;;;;;;;2.37;2.23;;;;;;;21.58;60.20;98825.50;6788336;29;20217;-86
2021/07/11 05:29:09;;;;;;;2.80;2.60;;;;;;;21.63;59.86;98821.94;6801332;29;20208;-85
2021/07/11 05:32:33;;;;;;;2.97;2.77;;;;;;;21.71;60.30;98805.75;6808419;29;20231;-86
2021/07/11 05:35:54;;;;;;;4.03;2.53;;;;;;;21.98;59.46;98824.66;6817565;29;20203;-84
2021/07/11 05:39:16;;;;;;;3.00;2.70;;;;;;;22.40;58.22;98803.09;6816833;29;20243;-86
2021/07/11 05:42:38;;;;;;;2.70;2.50;;;;;;;22.16;58.14;98802.94;6815883;29;20230;-85
2021/07/11 05:46:00;;;;;;;5.33;2.60;;;;;;;22.33;57.69;98830.06;6816160;29;20206;-86
2021/07/11 05:49:23;;;;;;;3.03;2.80;;;;;;;22.52;57.81;98825.63;6813756;29;20211;-88
2021/07/11 05:52:45;;;;;;;7.50;3.77;;;;;;;22.63;57.46;98833.56;6827446;29;20242;-87
2021/07/11 05:56:06;;;;;;;2.90;2.60;;;;;;;22.43;58.42;98825.38;6815786;29;20679;-85
2021/07/11 05:59:28;;;;;;;3.57;2.87;;;;;;;22.61;57.47;98821.19;6814164;29;20201;-84
2021/07/11 06:02:50;;;;;;;2.40;2.20;;;;;;;23.07;56.04;98808.84;6804414;29;20218;-86
2021/07/11 06:06:13;;;;;;;2.70;2.50;;;;;;;23.28;55.87;98837.88;6798458;29;20310;-84
2021/07/11 06:09:34;;;;;;;3.50;2.60;;;;;;;23.36;55.91;98835.31;6810995;29;20214;-84
2021/07/11 06:12:56;;;;;;;2.77;2.40;;;;;;;23.27;56.18;98841.72;6813824;29;20589;-86
2021/07/11 06:16:17;;;;;;;2.60;2.47;;;;;;;23.17;56.23;98861.03;6813715;29;20250;-85
2021/07/11 06:19:40;;;;;;;2.77;2.40;;;;;;;23.25;57.23;98849.47;6815167;29;20219;-85
2021/07/11 06:23:05;;;;;;;2.60;2.40;;;;;;;23.65;55.48;98840.91;6812021;29;20238;-87
2021/07/11 06:26:26;;;;;;;2.57;2.37;;;;;;;24.26;53.43;98856.56;6814357;29;20200;-86
2021/07/11 06:29:48;;;;;;;2.30;2.07;;;;;;;24.12;52.97;98847.34;6800103;29;20218;-89
2021/07/11 06:33:10;;;;;;;3.93;2.30;;;;;;;24.32;51.53;98825.09;6812581;29;20247;-87
2021/07/11 06:36:32;;;;;;;3.70;2.40;;;;;;;24.22;51.89;98841.72;6791846;29;20209;-87
2021/07/11 06:39:55;;;;;;;2.67;2.47;;;;;;;23.62;53.22;98847.78;6807297;29;20210;-86
2021/07/11 06:43:16;;;;;;;2.93;2.57;;;;;;;24.41;52.10;98853.63;6809087;29;20234;-87
2021/07/11 06:46:38;;;;;;;2.80;2.53;;;;;;;23.80;52.21;98852.59;6808224;29;20200;-88
2021/07/11 06:50:00;;;;;;;2.83;2.63;;;;;;;24.42;51.54;98852.53;6793334;29;20207;-87
2021/07/11 06:53:32;;;;;;;3.10;2.80;;;;;;;24.62;51.59;98851.50;6784668;29;20356;-87
2021/07/11 06:56:55;;;;;;;2.30;2.20;;;;;;;24.85;51.23;98837.69;6784886;29;20203;-87
2021/07/11 07:00:17;;;;;;;4.70;2.20;;;;;;;24.33;51.39;98839.69;6786442;29;20207;-85
2021/07/11 07:03:39;;;;;;;2.43;2.20;;;;;;;23.72;52.23;98839.44;6791014;29;20217;-86
2021/07/11 07:07:00;;;;;;;2.70;2.50;;;;;;;24.78;48.12;98819.84;6783711;29;20229;-86
2021/07/11 07:10:23;;;;;;;3.13;2.47;;;;;;;24.03;50.58;98826.22;6784560;29;20216;-86
2021/07/11 07:13:46;;;;;;;2.67;2.47;;;;;;;24.97;50.79;98837.25;6787217;29;20300;-87
2021/07/11 07:17:07;;;;;;;2.90;2.60;;;;;;;24.98;49.39;98828.69;6802610;29;20298;-85
2021/07/11 07:20:29;;;;;;;2.57;2.37;;;;;;;24.27;50.75;98830.66;6812999;29;20240;-87
2021/07/11 07:23:51;;;;;;;3.07;2.30;;;;;;;24.16;49.66;98836.56;6816081;29;20209;-84
2021/07/11 07:27:13;;;;;;;2.90;2.50;;;;;;;24.58;48.90;98844.91;6836963;29;20589;-87
2021/07/11 07:30:36;;;;;;;2.40;2.20;;;;;;;25.56;44.41;98856.81;6838600;29;20257;-87
2021/07/11 07:33:57;;;;;;;2.17;1.77;;;;;;;25.95;43.49;98844.28;6841321;29;20215;-85
2021/07/11 07:37:19;;;;;;;2.47;2.27;;;;;;;25.55;44.20;98844.94;6842333;29;20207;-85
2021/07/11 07:40:41;;;;;;;2.27;2.07;;;;;;;26.05;43.83;98833.06;6841121;29;20710;-86
2021/07/11 07:44:02;;;;;;;2.53;2.07;;;;;;;25.71;42.70;98838.03;6838578;29;20221;-87
2021/07/11 07:47:26;;;;;;;3.33;2.00;;;;;;;26.26;43.91;98842.59;6824924;29;20207;-87
2021/07/11 07:50:47;;;;;;;1.90;1.80;;;;;;;27.25;42.38;98844.41;6811444;29;20226;-87
2021/07/11 07:54:09;;;;;;;5.00;2.43;;;;;;;27.06;41.93;98823.50;6808124;29;20673;-87
2021/07/11 07:57:31;;;;;;;2.33;2.13;;;;;;;26.28;43.11;98839.53;6808330;29;20285;-87
2021/07/11 08:00:54;;;;;;;2.07;1.90;;;;;;;26.93;41.70;98844.56;6813784;29;20234;-85
2021/07/11 08:04:20;;;;;;;2.43;2.13;;;;;;;27.21;40.81;98834.28;6813179;29;20210;-85
2021/07/11 08:07:42;;;;;;;2.57;2.30;;;;;;;26.60;40.37;98837.53;6815981;29;20250;-86
2021/07/11 08:11:04;;;;;;;3.23;2.13;;;;;;;26.55;42.90;98843.16;6811419;29;20234;-87
2021/07/11 08:14:25;;;;;;;2.47;2.27;;;;;;;27.04;41.49;98828.56;6813209;29;20230;-86
2021/07/11 08:17:48;;;;;;;2.40;2.20;;;;;;;26.34;42.64;98838.31;6810305;29;20213;-88
2021/07/11 08:21:11;;;;;;;2.20;2.10;;;;;;;25.89;43.69;98842.69;6810699;29;20325;-86
2021/07/11 08:24:33;;;;;;;2.20;2.00;;;;;;;25.64;43.29;98858.88;6810958;29;20577;-85
2021/07/11 08:27:55;;;;;;;2.30;2.10;;;;;;;25.67;43.67;98864.63;6812753;29;20207;-86
2021/07/11 08:31:16;;;;;;;2.43;2.23;;;;;;;26.34;42.84;98865.94;6811706;29;20246;-87
2021/07/11 08:34:38;;;;;;;2.83;2.20;;;;;;;25.77;42.22;98849.84;6813154;29;20214;-85
2021/07/11 08:38:01;;;;;;;3.00;2.27;;;;;;;26.37;42.29;98855.09;6808708;29;20204;-87
2021/07/11 08:41:23;;;;;;;2.63;1.97;;;;;;;26.21;40.39;98864.00;6806939;29;20322;-87
2021/07/11 08:44:45;;;;;;;3.13;2.17;;;;;;;27.38;41.60;98859.38;6811793;29;20214;-85
2021/07/11 08:48:07;;;;;;;4.13;1.97;;;;;;;26.04;41.99;98861.81;6806625;29;20564;-87
2021/07/11 08:51:30;;;;;;;4.40;2.30;;;;;;;26.15;42.40;98868.81;6807879;29;20284;-87
2021/07/11 08:54:53;;;;;;;2.80;2.03;;;;;;;25.73;42.95;98871.69;6813797;29;20215;-84
2021/07/11 08:58:15;;;;;;;4.80;2.30;;;;;;;25.97;43.02;98857.81;6796665;29;20209;-86
2021/07/11 09:01:37;;;;;;;4.03;2.20;;;;;;;25.76;42.26;98853.69;6800908;29;20306;-84
2021/07/11 09:04:58;;;;;;;2.30;2.10;;;;;;;25.57;43.21;98875.00;6790427;29;20204;-85
2021/07/11 09:08:23;;;;;;;2.10;2.00;;;;;;;25.73;43.33;98868.13;6794815;29;20212;-85
2021/07/11 09:11:50;;;;;;;2.40;2.20;;;;;;;26.01;42.30;98886.47;6801345;29;20269;-85
2021/07/11 09:15:12;;;;;;;11.80;4.30;;;;;;;26.54;41.63;98884.97;6814856;29;20201;-88
2021/07/11 09:18:35;;;;;;;2.57;2.23;;;;;;;26.98;40.48;98879.59;6813180;29;20213;-91
2021/07/11 09:21:59;;;;;;;15.70;12.30;;;;;;;27.04;40.50;98843.22;6812843;29;20336;-87
2021/07/11 09:25:20;;;;;;;20.73;17.37;;;;;;;27.28;39.58;98865.13;6818212;29;20214;-86
2021/07/11 09:28:48;;;;;;;3.50;2.80;;;;;;;26.31;41.01;98841.69;6816320;29;20211;-89
2021/07/11 09:32:23;;;;;;;2.63;2.10;;;;;;;26.00;42.13;98866.31;6826500;29;20334;-87
2021/07/11 09:35:46;;;;;;;2.50;2.30;;;;;;;25.80;42.77;98874.09;6802055;29;20207;-85
2021/07/11 09:39:07;;;;;;;2.93;1.87;;;;;;;25.53;42.44;98894.13;6800885;29;20206;-88
2021/07/11 09:42:32;;;;;;;3.27;1.90;;;;;;;25.34;42.84;98885.03;6813096;29;20233;-88
2021/07/11 09:45:55;;;;;;;2.70;2.47;;;;;;;25.57;42.51;98883.28;6817796;29;20290;-85
2021/07/11 09:49:17;;;;;;;2.00;1.90;;;;;;;25.89;42.40;98881.38;6819544;29;20216;-86
2021/07/11 09:52:42;;;;;;;7.67;6.97;;;;;;;25.68;42.42;98893.06;6823862;29;20230;-90
2021/07/11 09:56:03;;;;;;;4.10;3.73;;;;;;;25.84;42.88;98875.94;6823382;29;20218;-90
2021/07/11 09:59:32;;;;;;;2.70;2.50;;;;;;;25.99;41.85;98881.25;6825501;29;20210;-90
2021/07/11 10:02:57;;;;;;;2.13;1.97;;;;;;;26.12;42.25;98877.69;6822966;29;20226;-90
2021/07/11 10:06:26;;;;;;;2.40;2.20;;;;;;;26.25;41.49;98878.84;6803889;29;20209;-91
2021/07/11 10:09:48;;;;;;;3.50;2.10;;;;;;;26.26;41.33;98861.94;6798600;29;20212;-90
2021/07/11 10:13:11;;;;;;;2.53;2.00;;;;;;;26.53;39.77;98833.50;6807349;29;20238;-90
2021/07/11 10:16:34;;;;;;;2.20;2.00;;;;;;;27.02;39.73;98878.69;6824086;29;20790;-91
2021/07/11 10:20:01;;;;;;;2.70;2.00;;;;;;;27.32;39.14;98855.06;6831291;29;20242;-91
2021/07/11 10:23:24;;;;;;;1.80;1.70;;;;;;;27.53;37.65;98870.06;6835213;29;20242;-91
2021/07/11 10:26:46;;;;;;;2.23;1.83;;;;;;;25.93;40.47;98876.94;6834509;29;20217;-91
2021/07/11 10:30:10;;;;;;;4.20;3.80;;;;;;;26.45;40.43;98848.88;6837754;28;20191;-91
2021/07/11 10:33:43;;;;;;;3.03;2.00;;;;;;;27.01;38.12;98877.03;6842077;28;20251;-90
2021/07/11 10:37:13;;;;;;;1.80;1.70;;;;;;;27.07;38.19;98817.66;6817243;28;20193;-89
2021/07/11 10:40:35;;;;;;;3.23;2.07;;;;;;;28.35;35.92;98880.47;6820760;28;20262;-91
2021/07/11 10:44:04;;;;;;;2.03;1.83;;;;;;;26.78;39.09;98877.28;6823634;28;20183;-90
2021/07/11 10:47:26;;;;;;;2.10;2.00;;;;;;;27.83;38.29;98867.41;6840326;28;20206;-91
2021/07/11 10:50:54;;;;;;;2.50;1.93;;;;;;;27.42;37.33;98808.56;6840960;28;20247;-89
2021/07/11 10:54:27;;;;;;;2.17;2.07;;;;;;;27.04;37.69;98878.38;6842642;28;20236;-89
2021/07/11 10:57:49;;;;;;;2.20;2.00;;;;;;;27.36;38.96;98884.59;6831143;28;20201;-88
2021/07/11 11:01:22;;;;;;;2.00;1.90;;;;;;;27.16;38.55;98882.28;6826454;28;20235;-88
2021/07/11 11:04:44;;;;;;;2.03;1.90;;;;;;;27.83;37.04;98881.28;6818680;28;20191;-89
2021/07/11 11:08:11;;;;;;;2.10;2.00;;;;;;;27.18;37.80;98868.16;6842482;28;20219;-88
2021/07/11 11:11:54;;;;;;;1.80;1.70;;;;;;;27.61;36.60;98822.25;6823260;28;20243;-89
2021/07/11 15:30:22;;;;;;;2.20;1.73;;;;;;;30.20;32.61;98754.38;6888249;28;20210;-87
2021/07/11 15:33:46;;;;;;;1.93;1.80;;;;;;;29.37;33.06;98741.13;6824243;29;20223;-89
2021/07/11 15:37:08;;;;;;;1.67;1.57;;;;;;;29.33;33.41;98752.09;6825770;29;20204;-90
2021/07/11 15:40:37;;;;;;;2.13;1.60;;;;;;;29.34;33.20;98756.50;6824774;29;20234;-89
2021/07/11 15:43:59;;;;;;;2.07;1.87;;;;;;;29.21;32.68;98742.78;6822124;29;20242;-87
2021/07/11 15:47:21;;;;;;;2.33;2.00;;;;;;;28.97;32.78;98742.44;6822937;29;20214;-89
2021/07/11 15:50:46;;;;;;;2.93;2.27;;;;;;;28.68;33.90;98703.38;6818910;29;20250;-89
2021/07/11 15:54:11;;;;;;;1.80;1.67;;;;;;;29.67;31.79;98726.25;6820332;29;20966;-89
2021/07/11 15:57:33;;;;;;;1.83;1.73;;;;;;;29.07;33.38;98731.03;6834258;28;20282;-87
2021/07/11 16:00:55;;;;;;;2.20;1.90;;;;;;;28.58;33.17;98715.59;6856753;23;20233;-83
2021/07/11 16:04:16;;;;;;;2.00;1.80;;;;;;;28.50;34.34;98719.19;6863966;28;20650;-84
2021/07/11 16:07:39;;;;;;;2.23;1.90;;;;;;;28.38;33.71;98691.22;6856289;28;20217;-83
2021/07/11 16:11:01;;;;;;;2.60;1.93;;;;;;;28.49;34.47;98711.19;6862193;28;20214;-83
2021/07/11 16:35:58;;;;;;;1.80;1.70;;;;;;;28.90;34.55;98689.34;6838719;28;20663;-71
2021/07/11 16:39:20;;;;;;;2.10;1.90;;;;;;;29.22;33.81;98688.84;6858429;28;20236;-71
2021/07/11 16:42:42;;;;;;;2.03;1.83;;;;;;;29.11;33.59;98693.94;6861529;28;20205;-72
2021/07/11 16:46:06;;;;;;;2.23;2.00;;;;;;;29.02;34.49;98686.75;6859996;28;20376;-72
2021/07/11 16:49:32;;;;;;;2.60;2.00;;;;;;;28.48;33.94;98693.69;6861380;28;20209;-71
2021/07/11 17:01:29;;;;;;;2.40;1.60;;;;;;;32.36;27.06;98683.81;6903698;23;20605;-80
2021/07/11 17:04:50;;;;;;;2.20;1.80;;;;;;;31.87;27.79;98675.72;6893387;28;20227;-80
2021/07/11 17:08:12;;;;;;;4.03;2.53;;;;;;;30.78;29.04;98680.03;6893454;28;20206;-80
2021/07/11 17:11:34;;;;;;;2.73;2.10;;;;;;;30.42;29.08;98670.63;6892276;28;20210;-80
2021/07/11 17:14:56;;;;;;;2.00;1.90;;;;;;;28.65;32.35;98682.63;6892333;28;20244;-80
2021/07/11 17:18:19;;;;;;;1.70;1.60;;;;;;;28.88;31.53;98674.97;6891746;28;20202;-79
2021/07/11 17:21:41;;;;;;;2.83;1.73;;;;;;;28.63;33.37;98687.69;6897639;28;20211;-81
2021/07/11 17:25:04;;;;;;;1.60;1.50;;;;;;;28.79;32.40;98680.50;6894639;28;20221;-80
2021/07/11 17:28:26;;;;;;;2.10;1.83;;;;;;;28.64;33.53;98678.22;6871520;28;20217;-80
2021/07/11 17:31:47;;;;;;;2.60;1.80;;;;;;;28.53;33.43;98670.53;6877267;28;20211;-80
2021/07/11 17:35:12;;;;;;;2.10;1.90;;;;;;;28.65;33.16;98677.09;6872799;28;20240;-80
2021/07/11 17:38:34;;;;;;;2.47;2.20;;;;;;;28.43;34.29;98693.06;6899496;28;20813;-81
2021/07/11 17:41:55;;;;;;;1.90;1.80;;;;;;;27.91;35.65;98663.50;6899659;28;20197;-80
2021/07/11 17:45:18;;;;;;;2.40;2.10;;;;;;;27.99;34.58;98687.66;6899754;28;20232;-80
2021/07/11 17:48:39;;;;;;;1.93;1.83;;;;;;;28.18;34.11;98685.47;6895985;28;20568;-79
2021/07/11 17:52:03;;;;;;;2.83;1.90;;;;;;;28.01;34.22;98688.19;6899705;28;20200;-79
2021/07/11 17:55:25;;;;;;;2.00;1.90;;;;;;;27.16;35.68;98676.59;6904620;28;20240;-79
2021/07/11 17:58:48;;;;;;;1.87;1.60;;;;;;;27.74;35.31;98678.09;6901297;28;20213;-79
2021/07/11 18:02:09;;;;;;;1.80;1.70;;;;;;;27.88;35.02;98680.75;6899046;28;20411;-80
2021/07/11 18:05:31;;;;;;;1.87;1.77;;;;;;;27.98;34.92;98678.53;6899304;28;20569;-80
2021/07/11 18:08:55;;;;;;;4.93;1.80;;;;;;;27.37;35.92;98678.53;6899173;28;20215;-80
2021/07/11 18:12:17;;;;;;;1.80;1.70;;;;;;;27.38;35.83;98687.66;6900447;28;20208;-79
2021/07/11 18:15:38;;;;;;;2.10;1.60;;;;;;;27.16;36.08;98688.50;6899898;28;20204;-79
2021/07/11 18:19:00;;;;;;;2.70;2.00;;;;;;;27.82;34.88;98684.81;6898759;28;20219;-80
2021/07/11 18:22:22;;;;;;;2.30;2.10;;;;;;;27.69;36.45;98682.94;6899270;28;20790;-79
2021/07/11 18:25:45;;;;;;;2.60;2.40;;;;;;;28.19;38.54;98681.53;6898370;28;20216;-79
2021/07/11 18:29:06;;;;;;;2.03;1.93;;;;;;;27.97;39.14;98674.16;6898956;28;20215;-80
2021/07/11 18:32:28;;;;;;;2.00;1.90;;;;;;;27.55;40.48;98673.91;6899250;28;20734;-79
2021/07/11 18:35:50;;;;;;;2.10;1.83;;;;;;;27.47;41.39;98658.88;6898811;28;20219;-79
2021/07/11 18:39:12;;;;;;;2.87;1.80;;;;;;;27.21;42.94;98638.53;6898532;28;20836;-80
2021/07/11 18:42:35;;;;;;;3.20;2.53;;;;;;;27.17;42.45;98659.69;6900109;28;20203;-79
2021/07/11 18:45:56;;;;;;;4.93;2.80;;;;;;;26.93;42.65;98666.63;6899925;28;20219;-80
2021/07/11 18:49:18;;;;;;;5.40;2.80;;;;;;;26.84;43.09;98661.03;6899555;28;20212;-80
2021/07/11 18:52:40;;;;;;;2.90;2.17;;;;;;;26.66;43.67;98656.47;6899786;28;20232;-80
2021/07/11 18:56:02;;;;;;;3.10;2.80;;;;;;;26.40;43.76;98665.63;6900818;28;20216;-80
2021/07/11 18:59:25;;;;;;;4.70;3.03;;;;;;;26.14;44.09;98657.09;6899397;28;20219;-80
2021/07/11 19:02:47;;;;;;;2.60;2.40;;;;;;;26.11;43.91;98670.69;6899695;28;20232;-80
2021/07/11 19:06:09;;;;;;;3.37;2.43;;;;;;;26.13;43.82;98663.75;6898616;28;20211;-80
2021/07/11 19:09:30;;;;;;;2.80;2.60;;;;;;;25.70;44.85;98661.56;6898562;28;20210;-80
2021/07/11 19:12:53;;;;;;;2.63;2.43;;;;;;;25.57;45.19;98643.88;6882819;28;20247;-80
2021/07/11 19:16:16;;;;;;;2.83;2.33;;;;;;;25.58;45.63;98662.09;6872846;28;20206;-79
2021/07/11 19:19:38;;;;;;;4.40;2.50;;;;;;;25.35;47.39;98673.28;6871674;28;20210;-80
2021/07/11 19:23:00;;;;;;;4.27;2.33;;;;;;;25.20;48.21;98673.53;6870908;28;20625;-80
2021/07/11 19:26:22;;;;;;;4.57;2.80;;;;;;;24.66;49.42;98678.84;6895713;28;20210;-82
2021/07/11 19:29:44;;;;;;;2.97;2.73;;;;;;;24.56;50.31;98685.31;6898752;28;20207;-80
2021/07/11 19:33:09;;;;;;;3.37;2.57;;;;;;;24.52;50.34;98680.66;6892882;28;20578;-80
2021/07/11 19:36:31;;;;;;;2.47;2.27;;;;;;;24.05;51.96;98684.34;6872932;28;20207;-80
2021/07/11 19:39:52;;;;;;;3.70;3.10;;;;;;;24.01;52.31;98699.00;6873411;28;20209;-81
2021/07/11 19:43:14;;;;;;;3.30;3.00;;;;;;;23.95;52.18;98695.47;6892920;28;20228;-79
2021/07/11 19:46:35;;;;;;;4.27;2.80;;;;;;;23.69;53.27;98691.34;6899057;28;20210;-79
2021/07/11 19:49:58;;;;;;;3.67;3.00;;;;;;;23.38;53.94;98661.69;6898410;28;20222;-80
2021/07/11 19:53:20;;;;;;;3.10;2.80;;;;;;;23.96;53.19;98696.31;6898958;28;20235;-80
2021/07/11 19:56:42;;;;;;;3.30;3.00;;;;;;;23.82;52.10;98682.38;6899007;28;20218;-80
2021/07/11 20:00:07;;;;;;;3.70;2.93;;;;;;;23.78;52.31;98697.84;6896014;28;20219;-80
2021/07/11 20:03:28;;;;;;;4.97;2.53;;;;;;;23.80;52.46;98698.38;6897435;28;20228;-80
2021/07/11 20:06:51;;;;;;;3.70;2.70;;;;;;;23.68;52.78;98699.91;6897664;28;20214;-82
2021/07/11 20:10:15;;;;;;;2.63;2.43;;;;;;;23.48;52.68;98684.41;6897265;28;20205;-81
2021/07/11 20:13:37;;;;;;;2.80;2.60;;;;;;;23.33;53.49;98697.50;6897669;28;20248;-78
2021/07/11 20:16:58;;;;;;;2.83;2.40;;;;;;;23.42;53.40;98696.59;6897928;28;20205;-80
2021/07/11 20:20:20;;;;;;;5.93;2.90;;;;;;;23.44;53.23;98685.28;6898555;28;20665;-79
2021/07/11 20:23:44;;;;;;;4.90;2.40;;;;;;;23.29;52.92;98690.94;6898000;28;20248;-80
2021/07/11 20:27:07;;;;;;;3.07;2.50;;;;;;;23.29;52.95;98683.50;6898859;28;20206;-80
2021/07/11 20:30:29;;;;;;;3.63;2.83;;;;;;;22.47;55.29;98689.06;6910741;28;20194;-80
2021/07/11 20:33:51;;;;;;;3.00;2.70;;;;;;;22.34;56.12;98689.69;6902199;28;20315;-80
2021/07/11 20:37:12;;;;;;;3.73;2.70;;;;;;;21.84;57.57;98694.59;6892518;28;20651;-80
2021/07/11 20:40:35;;;;;;;2.70;2.50;;;;;;;22.34;55.38;98692.44;6892398;28;20601;-79
2021/07/11 20:43:57;;;;;;;2.80;2.60;;;;;;;21.64;57.17;98667.16;6892750;28;20230;-80
2021/07/11 20:47:19;;;;;;;2.70;2.50;;;;;;;21.84;56.30;98691.84;6892963;28;20587;-80
2021/07/11 20:50:40;;;;;;;3.57;2.50;;;;;;;21.70;57.04;98661.41;6892465;28;20209;-80
2021/07/11 20:54:02;;;;;;;4.67;2.97;;;;;;;22.06;56.46;98684.88;6891442;28;20231;-80
2021/07/11 20:57:25;;;;;;;4.33;2.80;;;;;;;21.83;56.88;98679.22;6892367;28;20220;-80
